Time;durP1;ratioP1;P1;durP2;ratioP2;P2;SDS_P1;SDS_P2;PMS_P1;PMS_P2;Temp;Humidity;BMP_temperature;BMP_pressure;BME280_temperature;BME280_humidity;BME280_pressure;Samples;Min_cycle;Max_cycle;Signal;HPM_P1;HPM_P2
2023/12/07 00:00:51;;;;;;;30.50;22.33;;;;;;;-145.63;54.89;38940.16;5063486;28;20025;-62
2023/12/07 00:03:17;;;;;;;31.10;24.52;;;;;;;-145.63;54.29;38918.66;5078714;28;20024;-63
2023/12/07 00:05:42;;;;;;;30.70;23.60;;;;;;;-145.63;54.49;38922.56;5072514;28;20035;-63
2023/12/07 00:08:11;;;;;;;28.98;22.67;;;;;;;-145.63;54.43;38873.66;5069160;28;20027;-63
2023/12/07 00:10:37;;;;;;;31.02;23.00;;;;;;;-145.63;54.76;38785.66;5083074;28;20066;-63
2023/12/07 00:13:02;;;;;;;28.60;21.45;;;;;;;-145.63;55.04;38908.88;5082036;28;20243;-63
2023/12/07 00:15:28;;;;;;;27.95;21.42;;;;;;;-145.63;54.87;38881.50;5082781;28;20036;-62
2023/12/07 00:17:54;;;;;;;33.35;24.60;;;;;;;-145.63;55.21;38918.66;5070762;28;20025;-63
2023/12/07 00:20:19;;;;;;;30.33;22.77;;;;;;;-145.63;55.50;38891.28;5070345;28;20089;-64
2023/12/07 00:22:45;;;;;;;31.55;23.10;;;;;;;-145.63;55.31;38903.00;5081749;28;20048;-62
2023/12/07 00:25:11;;;;;;;30.00;22.15;;;;;;;-145.63;54.44;38899.09;5082849;28;20064;-62
2023/12/07 00:27:37;;;;;;;29.30;22.33;;;;;;;-145.63;54.35;38908.88;5079023;28;20150;-63
2023/12/07 00:30:03;;;;;;;29.50;21.73;;;;;;;-145.63;55.38;38942.13;5082932;28;20025;-62
2023/12/07 00:32:30;;;;;;;30.02;22.05;;;;;;;-145.63;55.88;38897.13;5082856;28;20032;-63
2023/12/07 00:34:56;;;;;;;29.70;21.92;;;;;;;-145.63;55.07;38914.72;5082819;28;20090;-62
2023/12/07 00:37:21;;;;;;;29.40;22.73;;;;;;;-145.63;55.51;38938.19;5082442;28;20048;-63
2023/12/07 00:39:47;;;;;;;29.35;21.92;;;;;;;-145.63;54.88;38889.31;5071384;28;20017;-63
2023/12/07 00:42:13;;;;;;;32.67;23.67;;;;;;;-145.63;56.34;38891.28;5082557;28;20029;-63
2023/12/07 00:44:41;;;;;;;27.48;20.98;;;;;;;-145.63;56.01;38883.44;5072762;28;20092;-64
2023/12/07 00:47:07;;;;;;;31.00;22.38;;;;;;;-145.63;56.51;38897.13;5068188;28;20078;-63
2023/12/07 00:49:33;;;;;;;29.45;21.13;;;;;;;-145.63;55.07;38897.13;5082385;28;20036;-64
2023/12/07 00:51:59;;;;;;;29.48;22.52;;;;;;;-145.63;56.34;38889.31;5082708;28;20021;-63
2023/12/07 00:54:24;;;;;;;30.42;23.48;;;;;;;-145.63;56.40;38883.44;5082554;28;20020;-64
2023/12/07 00:56:51;;;;;;;31.13;23.10;;;;;;;-145.63;56.24;38906.91;5071248;28;20021;-62
2023/12/07 00:59:17;;;;;;;31.98;24.15;;;;;;;-145.63;55.44;38893.22;5077583;28;20020;-62
2023/12/07 01:01:42;;;;;;;31.23;22.75;;;;;;;-145.63;56.24;38877.56;5080488;28;20067;-62
2023/12/07 01:04:08;;;;;;;31.65;23.20;;;;;;;-145.63;56.15;38887.34;5062358;28;20025;-63
2023/12/07 01:06:34;;;;;;;30.95;24.83;;;;;;;-145.63;56.35;38920.59;5079725;28;20048;-62
2023/12/07 01:08:59;;;;;;;29.10;23.30;;;;;;;-145.63;55.97;38899.09;5069686;28;20361;-62
2023/12/07 01:11:25;;;;;;;30.60;23.10;;;;;;;-145.63;55.16;38883.44;5068799;28;20027;-62
2023/12/07 01:13:51;;;;;;;33.10;24.25;;;;;;;-145.63;55.76;38881.50;5079262;28;20025;-62
2023/12/07 01:16:16;;;;;;;31.65;23.23;;;;;;;-145.63;55.57;38895.19;5062111;28;20047;-61
2023/12/07 01:18:42;;;;;;;32.42;24.50;;;;;;;-145.63;55.05;38879.53;5080694;28;20205;-62
2023/12/07 01:21:08;;;;;;;33.15;25.17;;;;;;;-145.63;55.82;38906.91;5068419;28;20067;-62
2023/12/07 01:23:33;;;;;;;31.05;23.33;;;;;;;-145.63;55.78;38920.59;5071129;28;20040;-62
2023/12/07 01:26:02;;;;;;;31.77;23.40;;;;;;;-145.63;54.90;38924.50;5078201;28;20083;-62
2023/12/07 01:28:28;;;;;;;33.67;24.42;;;;;;;-145.63;56.59;38910.81;5062078;28;20040;-63
2023/12/07 01:30:54;;;;;;;31.17;23.00;;;;;;;-145.63;55.40;38922.56;5082043;28;20031;-62
2023/12/07 01:33:21;;;;;;;34.70;24.80;;;;;;;-145.63;55.40;38879.53;5083766;28;20021;-62
2023/12/07 01:35:47;;;;;;;30.98;23.83;;;;;;;-145.63;55.33;38881.50;5086411;28;20037;-61
2023/12/07 01:38:13;;;;;;;30.77;22.70;;;;;;;-145.63;54.87;38889.31;5080110;28;20031;-62
2023/12/07 01:40:38;;;;;;;28.98;21.35;;;;;;;-145.63;55.14;38893.22;5067105;28;20092;-62
2023/12/07 01:43:04;;;;;;;33.20;23.55;;;;;;;-145.63;56.40;38887.34;5086175;28;20078;-65
2023/12/07 01:45:30;;;;;;;31.33;23.75;;;;;;;-145.63;54.90;38906.91;5079458;28;20585;-63
2023/12/07 01:47:58;;;;;;;32.50;22.10;;;;;;;-145.63;55.39;38901.03;5085987;28;20039;-62
2023/12/07 01:50:24;;;;;;;29.48;21.52;;;;;;;-145.63;56.36;38899.09;5085737;28;20138;-63
2023/12/07 01:52:56;;;;;;;29.50;21.92;;;;;;;-145.63;56.20;38867.81;5085812;28;20028;-63
2023/12/07 01:55:23;;;;;;;29.27;22.10;;;;;;;-145.63;56.61;38871.72;5085648;28;20035;-65
2023/12/07 01:57:49;;;;;;;30.48;22.60;;;;;;;-145.63;55.70;38883.44;5085905;28;20108;-64
2023/12/07 02:00:16;;;;;;;32.50;22.58;;;;;;;-145.63;56.64;38869.75;5071466;28;20031;-63
2023/12/07 02:02:43;;;;;;;29.88;20.98;;;;;;;-145.63;55.57;38901.03;5075325;28;20029;-62
2023/12/07 02:05:09;;;;;;;30.23;22.02;;;;;;;-145.63;55.97;38920.59;5080254;28;20036;-64
2023/12/07 02:07:35;;;;;;;29.92;21.48;;;;;;;-145.63;56.21;38922.56;5081378;28;20096;-63
2023/12/07 02:10:00;;;;;;;29.90;23.02;;;;;;;-145.63;55.97;38897.13;5085582;28;20060;-64
2023/12/07 02:12:29;;;;;;;29.92;22.52;;;;;;;-145.63;56.08;38926.47;5085409;28;20021;-64
2023/12/07 02:14:56;;;;;;;28.60;21.48;;;;;;;-145.63;55.59;38877.56;5074218;28;20053;-64
2023/12/07 02:17:40;;;;;;;26.23;18.52;;;;;;;-145.63;56.56;38920.59;5072296;28;20285;-65
2023/12/07 02:20:24;;;;;;;28.70;21.33;;;;;;;-145.63;56.26;38101.31;5081009;28;20232;-62
2023/12/07 02:22:54;;;;;;;29.17;22.33;;;;;;;-145.63;55.83;38895.19;5067446;28;20020;-62
2023/12/07 02:25:26;;;;;;;29.17;21.60;;;;;;;-145.63;56.25;38906.91;5085092;28;20116;-63
2023/12/07 02:27:51;;;;;;;28.27;21.52;;;;;;;-145.63;56.65;38885.41;5066089;28;20332;-64
2023/12/07 02:30:17;;;;;;;30.88;22.25;;;;;;;-145.63;55.99;38877.56;5079239;28;20028;-63
2023/12/07 02:32:45;;;;;;;28.23;20.52;;;;;;;-145.63;55.31;38859.97;5094889;28;20217;-62
2023/12/07 02:35:15;;;;;;;31.42;22.70;;;;;;;-145.63;55.97;38912.78;5099991;28;20041;-63
2023/12/07 02:37:48;;;;;;;29.95;21.70;;;;;;;-145.63;55.92;38924.50;5084017;28;20059;-61
2023/12/07 02:40:21;;;;;;;28.92;21.85;;;;;;;-145.63;55.90;38887.34;5064905;28;20032;-62
2023/12/07 02:42:48;;;;;;;27.45;20.48;;;;;;;-145.63;55.15;38881.50;5083286;28;20044;-63
2023/12/07 02:45:14;;;;;;;28.80;21.30;;;;;;;-145.63;55.80;38904.97;5069800;28;20047;-62
2023/12/07 02:47:40;;;;;;;26.63;19.45;;;;;;;-145.63;55.03;38885.41;5073716;28;20025;-61
2023/12/07 02:50:07;;;;;;;29.13;21.08;;;;;;;-145.63;55.51;38842.38;5084798;28;20028;-62
2023/12/07 02:52:34;;;;;;;28.17;19.10;;;;;;;-145.63;55.72;38897.13;5084657;28;20121;-63
2023/12/07 02:54:59;;;;;;;29.48;21.17;;;;;;;-145.63;54.89;38861.94;5077894;28;20024;-63
2023/12/07 02:57:25;;;;;;;26.90;20.27;;;;;;;-145.63;56.00;38854.13;5069434;28;20059;-63
2023/12/07 02:59:51;;;;;;;27.48;20.67;;;;;;;-145.63;55.28;38867.81;5074882;28;20376;-63
2023/12/07 03:02:16;;;;;;;25.77;18.98;;;;;;;-145.63;56.44;38867.81;5082951;28;20197;-62
2023/12/07 03:04:42;;;;;;;27.52;20.60;;;;;;;-145.63;55.94;38873.66;5083492;28;20024;-62
2023/12/07 03:07:08;;;;;;;27.80;19.67;;;;;;;-145.63;56.56;38908.88;5064212;28;20338;-62
2023/12/07 03:09:33;;;;;;;26.02;18.65;;;;;;;-145.63;56.12;38846.28;5080437;28;20028;-62
2023/12/07 03:11:59;;;;;;;26.70;19.30;;;;;;;-145.63;57.12;38850.19;5084242;28;20013;-63
2023/12/07 03:14:25;;;;;;;25.27;18.85;;;;;;;-145.63;56.32;38889.31;5077538;28;20025;-63
2023/12/07 03:16:50;;;;;;;29.48;20.67;;;;;;;-145.63;55.26;38863.88;5066109;28;20025;-63
2023/12/07 03:19:16;;;;;;;30.52;19.83;;;;;;;-145.63;55.28;38856.06;5084325;28;20048;-63
2023/12/07 03:21:45;;;;;;;28.58;19.98;;;;;;;-145.63;55.72;38887.34;5066917;28;20021;-64
2023/12/07 03:24:11;;;;;;;25.95;19.35;;;;;;;-145.63;55.92;38859.97;5077047;28;20209;-62
2023/12/07 03:26:37;;;;;;;26.90;18.70;;;;;;;-145.63;55.65;38879.53;5076013;28;20021;-63
2023/12/07 03:29:03;;;;;;;27.05;19.98;;;;;;;-145.63;55.81;38885.41;5067453;28;20020;-63
2023/12/07 03:31:29;;;;;;;26.23;20.17;;;;;;;-145.63;55.64;38871.72;5083642;28;20039;-63
2023/12/07 03:33:56;;;;;;;27.67;20.75;;;;;;;-145.63;55.51;38906.91;5083976;28;20336;-62
2023/12/07 03:36:22;;;;;;;27.23;19.15;;;;;;;-145.63;55.13;38871.72;5083786;28;20055;-63
2023/12/07 03:38:48;;;;;;;24.60;19.02;;;;;;;-145.63;55.49;38863.88;5073118;28;20036;-63
2023/12/07 03:41:14;;;;;;;26.55;20.90;;;;;;;-145.63;56.50;38891.28;5068437;28;20031;-63
2023/12/07 03:43:39;;;;;;;27.00;19.80;;;;;;;-145.63;54.78;38852.16;5083549;28;20024;-63
2023/12/07 03:46:08;;;;;;;25.08;18.60;;;;;;;-145.63;55.51;38824.78;5063767;28;20021;-63
2023/12/07 03:48:34;;;;;;;26.45;19.40;;;;;;;-145.63;54.77;38877.56;5079418;28;20059;-64
2023/12/07 03:51:01;;;;;;;28.98;20.38;;;;;;;-145.63;55.47;38904.97;5083970;28;20020;-64
2023/12/07 03:53:28;;;;;;;26.50;19.95;;;;;;;-145.63;55.51;38885.41;5083165;28;20701;-63
2023/12/07 03:55:54;;;;;;;28.48;20.30;;;;;;;-145.63;54.92;38891.28;5081427;28;20031;-63
2023/12/07 03:58:19;;;;;;;29.65;19.13;;;;;;;-145.63;55.61;38875.63;5063284;28;20021;-63
2023/12/07 04:00:45;;;;;;;25.90;18.63;;;;;;;-145.63;55.46;38871.72;5080193;28;20252;-63
2023/12/07 04:03:11;;;;;;;25.30;19.52;;;;;;;-145.63;55.95;38861.94;5083412;28;20342;-63
2023/12/07 04:05:37;;;;;;;29.35;20.38;;;;;;;-145.63;54.86;38871.72;5075517;28;20037;-63
2023/12/07 04:08:07;;;;;;;25.63;20.25;;;;;;;-145.63;56.37;38863.88;5065284;28;20232;-63
2023/12/07 04:10:32;;;;;;;30.10;19.50;;;;;;;-145.63;56.12;38897.13;5082759;28;20039;-64
2023/12/07 04:12:58;;;;;;;26.67;19.42;;;;;;;-145.63;54.77;38375.03;5082832;28;20520;-64
2023/12/07 04:15:24;;;;;;;26.73;19.50;;;;;;;-145.63;55.51;38881.50;5068395;28;20036;-64
2023/12/07 04:17:50;;;;;;;28.05;20.42;;;;;;;-145.63;54.94;38854.13;5072536;28;20021;-64
2023/12/07 04:20:16;;;;;;;25.02;18.25;;;;;;;-145.63;55.89;38883.44;5076502;28;20021;-64
2023/12/07 04:22:44;;;;;;;26.65;20.13;;;;;;;-145.63;56.68;38856.06;5078336;28;20079;-64
2023/12/07 04:25:09;;;;;;;28.08;20.65;;;;;;;-145.63;56.36;38885.41;5082721;28;20488;-64
2023/12/07 04:27:35;;;;;;;28.50;20.83;;;;;;;-145.63;55.36;38850.19;5066888;28;20029;-65
2023/12/07 04:30:01;;;;;;;28.95;21.25;;;;;;;-145.63;56.41;38867.81;5073393;28;20078;-64
2023/12/07 04:32:28;;;;;;;30.10;21.33;;;;;;;-145.63;55.95;38881.50;5082133;28;20383;-63
2023/12/07 04:34:53;;;;;;;29.35;20.90;;;;;;;-145.63;55.47;38859.97;5080677;28;20036;-64
2023/12/07 04:37:19;;;;;;;28.23;20.40;;;;;;;-145.63;55.89;38871.72;5066840;28;20207;-64
2023/12/07 04:39:45;;;;;;;31.55;22.63;;;;;;;-145.63;55.28;38897.13;5081495;28;20094;-64
2023/12/07 04:42:10;;;;;;;33.38;22.60;;;;;;;-145.63;56.59;38877.56;5070093;28;20032;-64
2023/12/07 04:44:36;;;;;;;28.30;20.30;;;;;;;-145.63;55.93;38846.28;5074522;28;20035;-64
2023/12/07 04:47:01;;;;;;;30.02;21.80;;;;;;;-145.63;56.80;38883.44;5079903;28;20251;-64
2023/12/07 04:49:27;;;;;;;30.08;21.70;;;;;;;-145.63;56.14;38875.63;5078822;28;20036;-63
2023/12/07 04:51:53;;;;;;;28.45;20.95;;;;;;;-145.63;55.68;38783.72;5082323;28;20156;-64
2023/12/07 04:54:19;;;;;;;28.48;20.65;;;;;;;-145.63;55.81;38859.97;5076610;28;20012;-63
2023/12/07 04:56:45;;;;;;;27.50;20.15;;;;;;;-145.63;55.63;38883.44;5081133;28;20086;-65
2023/12/07 04:59:10;;;;;;;25.38;20.10;;;;;;;-145.63;54.86;38904.97;5081704;28;20274;-62
2023/12/07 05:01:37;;;;;;;27.55;20.83;;;;;;;-145.63;55.41;38887.34;5081620;28;20105;-63
2023/12/07 05:04:05;;;;;;;30.02;21.55;;;;;;;-145.63;55.78;38897.13;5077220;28;20024;-63
2023/12/07 05:06:32;;;;;;;31.02;20.85;;;;;;;-145.63;54.90;38895.19;5072879;28;20047;-62
2023/12/07 05:08:58;;;;;;;29.85;21.08;;;;;;;-145.63;55.70;38867.81;5070837;28;20098;-62
2023/12/07 05:11:24;;;;;;;27.20;19.17;;;;;;;-145.63;56.49;38885.41;5072507;28;20036;-63
2023/12/07 05:13:49;;;;;;;27.05;19.50;;;;;;;-145.63;56.93;38889.31;5081958;28;20070;-61
2023/12/07 05:16:15;;;;;;;27.70;20.30;;;;;;;-145.63;56.07;38875.63;5081997;28;20027;-62
2023/12/07 05:18:41;;;;;;;27.55;21.10;;;;;;;-145.63;55.92;38871.72;5082102;28;20055;-64
2023/12/07 05:21:07;;;;;;;28.75;20.58;;;;;;;-145.63;57.13;38885.41;5070596;28;20021;-63
2023/12/07 05:23:33;;;;;;;27.95;19.55;;;;;;;-145.63;56.57;38893.22;5068453;28;20024;-63
2023/12/07 05:25:59;;;;;;;27.67;20.27;;;;;;;-145.63;56.07;38873.66;5082115;28;20411;-63
2023/12/07 05:28:26;;;;;;;27.00;19.63;;;;;;;-145.63;55.73;38867.81;5081775;28;20236;-63
2023/12/07 05:30:52;;;;;;;26.30;19.88;;;;;;;-145.63;56.72;38859.97;5082059;28;20024;-62
2023/12/07 05:33:21;;;;;;;26.38;19.08;;;;;;;-145.63;56.93;38895.19;5082494;28;20360;-62
2023/12/07 05:35:46;;;;;;;28.17;20.17;;;;;;;-145.63;55.55;38856.06;5082160;28;20111;-61
2023/12/07 05:38:12;;;;;;;25.63;18.58;;;;;;;-145.63;55.80;38883.44;5074728;28;20043;-62
2023/12/07 05:40:38;;;;;;;22.20;17.70;;;;;;;-145.63;57.36;38846.28;5082094;28;20031;-62
2023/12/07 05:43:03;;;;;;;26.48;18.88;;;;;;;-145.63;56.72;38848.25;5070108;28;20295;-61
2023/12/07 05:45:30;;;;;;;28.20;19.42;;;;;;;-145.63;57.37;38801.31;5067582;28;20029;-62
2023/12/07 05:47:56;;;;;;;26.63;20.15;;;;;;;-145.63;56.53;38809.13;5074511;28;20016;-62
2023/12/07 05:50:22;;;;;;;26.38;20.17;;;;;;;-145.63;56.42;38824.78;5075773;28;20309;-63
2023/12/07 05:52:47;;;;;;;25.40;19.05;;;;;;;-145.63;55.34;38826.72;5081958;28;20025;-62
2023/12/07 05:55:13;;;;;;;27.60;20.17;;;;;;;-145.63;55.78;38859.97;5081585;28;20246;-62
2023/12/07 05:57:40;;;;;;;25.65;19.58;;;;;;;-145.63;55.06;38815.00;5071871;28;20078;-62
2023/12/07 06:00:10;;;;;;;26.77;19.75;;;;;;;-145.63;56.16;38824.78;5080112;28;20032;-63
2023/12/07 06:02:36;;;;;;;23.40;18.92;;;;;;;-145.63;55.56;38836.50;5081510;28;20027;-61
2023/12/07 06:05:05;;;;;;;27.15;19.80;;;;;;;-145.63;55.65;38836.50;5081569;28;20062;-63
2023/12/07 06:07:31;;;;;;;28.17;20.30;;;;;;;-145.63;56.00;38789.59;5079985;28;20040;-62
2023/12/07 06:09:57;;;;;;;26.55;19.02;;;;;;;-145.63;55.32;38781.75;5075509;28;20351;-63
2023/12/07 06:12:22;;;;;;;28.02;20.27;;;;;;;-145.63;55.85;38811.09;5081576;28;20031;-62
2023/12/07 06:14:49;;;;;;;26.33;20.20;;;;;;;-145.63;56.17;38805.22;5081750;28;20166;-62
2023/12/07 06:17:15;;;;;;;26.25;19.70;;;;;;;-145.63;55.20;38838.47;5077940;28;20029;-62
2023/12/07 06:19:41;;;;;;;26.23;19.83;;;;;;;-145.63;55.53;38828.69;5079855;28;20247;-62
2023/12/07 06:22:06;;;;;;;29.20;20.92;;;;;;;-145.63;55.38;38799.34;5068709;28;20055;-62
2023/12/07 06:24:32;;;;;;;27.23;20.67;;;;;;;-145.63;55.16;38811.09;5078937;28;20508;-63
2023/12/07 06:26:59;;;;;;;26.88;21.10;;;;;;;-145.63;55.50;38820.88;5075224;28;20021;-62
2023/12/07 06:29:25;;;;;;;28.10;20.73;;;;;;;-145.63;55.53;38820.88;5080056;28;20224;-63
2023/12/07 06:31:50;;;;;;;25.88;19.50;;;;;;;-145.63;55.54;38818.91;5064843;28;20021;-63
2023/12/07 06:34:16;;;;;;;27.98;20.67;;;;;;;-145.63;54.79;38809.13;5098694;28;20074;-62
2023/12/07 06:36:43;;;;;;;28.17;20.42;;;;;;;-145.63;55.26;38840.44;5084128;28;20040;-63
2023/12/07 06:39:10;;;;;;;26.50;20.70;;;;;;;-145.63;54.45;38838.47;5073441;28;20055;-63
2023/12/07 06:41:36;;;;;;;27.85;19.63;;;;;;;-145.63;55.64;38824.78;5070785;28;20029;-63
2023/12/07 06:44:02;;;;;;;28.55;21.20;;;;;;;-145.63;54.83;38793.50;5083465;28;20048;-63
2023/12/07 06:46:27;;;;;;;27.65;20.27;;;;;;;-145.63;55.57;38805.22;5064998;28;20028;-63
2023/12/07 06:48:54;;;;;;;25.33;19.40;;;;;;;-145.63;54.57;38844.34;5081725;28;20027;-63
2023/12/07 06:51:20;;;;;;;27.73;20.70;;;;;;;-145.63;54.54;38840.44;5084371;28;20032;-64
2023/12/07 06:53:45;;;;;;;26.30;19.85;;;;;;;-145.63;53.25;38803.28;5084562;28;20096;-63
2023/12/07 06:56:11;;;;;;;24.98;19.77;;;;;;;-145.63;53.06;38848.25;5081552;28;20703;-64
2023/12/07 06:58:37;;;;;;;26.85;20.23;;;;;;;-145.63;53.34;38844.34;5064353;28;20025;-65
2023/12/07 07:01:03;;;;;;;23.63;19.30;;;;;;;-145.63;53.32;38805.22;5064089;28;20293;-64
2023/12/07 07:03:28;;;;;;;26.98;19.88;;;;;;;-145.63;54.44;38836.50;5077482;28;20032;-64
2023/12/07 07:05:55;;;;;;;27.17;19.33;;;;;;;-145.63;53.60;38844.34;5084116;28;20028;-64
2023/12/07 07:08:20;;;;;;;25.48;19.38;;;;;;;-145.63;53.92;38842.38;5079851;28;20021;-64
2023/12/07 07:10:49;;;;;;;27.17;20.48;;;;;;;-145.63;53.57;38820.88;5064003;28;20044;-64
2023/12/07 07:13:16;;;;;;;26.13;19.80;;;;;;;-145.63;53.53;38803.28;5083615;28;20020;-64
2023/12/07 07:15:43;;;;;;;28.52;21.08;;;;;;;-145.63;53.74;38818.91;5068793;28;20062;-63
2023/12/07 07:18:09;;;;;;;27.48;20.33;;;;;;;-145.63;53.42;38811.09;5073375;28;20078;-63
2023/12/07 07:20:35;;;;;;;29.25;20.88;;;;;;;-145.63;53.15;38820.88;5083996;28;20028;-64
2023/12/07 07:23:01;;;;;;;27.13;20.15;;;;;;;-145.63;54.12;38809.13;5082899;28;20350;-63
2023/12/07 07:25:26;;;;;;;28.25;21.90;;;;;;;-145.63;53.61;38783.72;5063764;28;20029;-63
2023/12/07 07:27:54;;;;;;;31.55;22.95;;;;;;;-145.63;53.82;38842.38;5080252;28;20052;-64
2023/12/07 07:30:23;;;;;;;33.20;23.55;;;;;;;-145.63;54.78;38777.84;5071157;28;20021;-62
2023/12/07 07:32:49;;;;;;;28.10;21.85;;;;;;;-145.63;54.59;38815.00;5078949;28;20055;-63
2023/12/07 07:35:15;;;;;;;29.05;22.55;;;;;;;-145.63;53.48;38801.31;5082537;28;20036;-64
2023/12/07 07:37:41;;;;;;;30.48;23.77;;;;;;;-145.63;53.08;38633.16;5083902;28;20511;-64
2023/12/07 07:40:11;;;;;;;32.13;23.20;;;;;;;-145.63;53.35;38930.38;5083568;28;20205;-64
2023/12/07 07:42:39;;;;;;;34.28;25.88;;;;;;;-145.63;53.20;38820.88;5069684;28;20345;-65
2023/12/07 07:45:07;;;;;;;35.63;23.25;;;;;;;-145.63;53.23;38816.97;5073667;28;20051;-64
2023/12/07 07:47:33;;;;;;;31.88;22.13;;;;;;;-145.63;53.24;38820.88;5083260;28;20063;-64
2023/12/07 07:50:04;;;;;;;30.80;22.00;;;;;;;-145.63;52.55;38813.03;5083595;28;20115;-65
2023/12/07 07:52:32;;;;;;;33.08;23.00;;;;;;;-145.63;53.29;38684.00;5083368;28;20255;-64
2023/12/07 07:54:58;;;;;;;31.20;22.35;;;;;;;-145.63;52.79;38805.22;5083271;28;20025;-64
2023/12/07 07:57:23;;;;;;;31.42;24.15;;;;;;;-145.63;52.55;38807.19;5070995;28;20036;-64
2023/12/07 07:59:49;;;;;;;31.88;23.35;;;;;;;-145.63;53.18;38826.72;5070755;28;20226;-64
2023/12/07 08:02:15;;;;;;;32.47;25.33;;;;;;;-145.63;52.51;38793.50;5079062;28;20016;-64
2023/12/07 08:04:40;;;;;;;33.97;24.23;;;;;;;-145.63;52.83;38852.16;5063385;28;20024;-65
2023/12/07 08:07:07;;;;;;;31.02;23.35;;;;;;;-145.63;52.06;38764.16;5080905;28;20067;-64
2023/12/07 08:09:33;;;;;;;33.03;23.58;;;;;;;-145.63;51.71;38752.44;5069559;28;20111;-65
2023/12/07 08:11:59;;;;;;;31.30;23.92;;;;;;;-145.63;52.01;38805.22;5075474;28;20021;-64
2023/12/07 08:14:24;;;;;;;28.63;22.35;;;;;;;-145.63;52.38;38771.97;5079121;28;20214;-65
2023/12/07 08:16:50;;;;;;;30.63;23.15;;;;;;;-145.63;51.82;38801.31;5063065;28;20040;-65
2023/12/07 08:19:16;;;;;;;32.28;23.90;;;;;;;-145.63;52.23;38834.56;5097622;28;20032;-65
2023/12/07 08:21:41;;;;;;;35.97;24.75;;;;;;;-145.63;51.29;38846.28;5082701;28;20058;-65
2023/12/07 08:24:08;;;;;;;31.52;22.63;;;;;;;-145.63;50.95;38836.50;5073297;28;20060;-64
2023/12/07 08:26:33;;;;;;;30.23;23.35;;;;;;;-145.63;51.15;38836.50;5067676;28;20056;-65
2023/12/07 08:28:59;;;;;;;31.92;22.27;;;;;;;-145.63;50.93;38861.94;5082592;28;20031;-64
2023/12/07 08:31:25;;;;;;;29.70;21.05;;;;;;;-145.63;50.88;38830.66;5062271;28;20032;-65
2023/12/07 08:33:51;;;;;;;28.33;21.92;;;;;;;-145.63;51.58;38852.16;5094213;28;20030;-65
2023/12/07 08:36:17;;;;;;;29.85;22.95;;;;;;;-145.63;50.09;38840.44;5091222;28;20033;-64
2023/12/07 08:38:43;;;;;;;28.08;21.58;;;;;;;-145.63;50.95;38807.19;5076126;28;20094;-65
2023/12/07 08:41:08;;;;;;;31.88;23.30;;;;;;;-145.63;51.28;38815.00;5063621;28;20036;-65
2023/12/07 08:43:34;;;;;;;32.67;23.65;;;;;;;-145.63;51.68;38809.13;5081677;28;20159;-65
2023/12/07 08:46:00;;;;;;;31.52;22.80;;;;;;;-145.63;51.20;38875.63;5065857;28;20024;-65
2023/12/07 08:48:25;;;;;;;30.50;23.23;;;;;;;-145.63;50.53;38838.47;5074200;28;20016;-65
2023/12/07 08:50:51;;;;;;;27.65;20.10;;;;;;;-145.63;50.34;38842.38;5082402;28;20028;-64
2023/12/07 08:53:17;;;;;;;27.70;20.92;;;;;;;-145.63;51.62;38785.66;5082276;28;20029;-66
2023/12/07 08:55:43;;;;;;;32.20;23.25;;;;;;;-145.63;51.37;38848.25;5082434;28;20021;-64
2023/12/07 08:58:10;;;;;;;30.15;21.60;;;;;;;-145.63;52.18;38801.31;5082268;28;20327;-64
2023/12/07 09:00:36;;;;;;;29.92;22.15;;;;;;;-145.63;51.20;38813.03;5069129;28;20307;-65
2023/12/07 09:03:02;;;;;;;29.25;22.25;;;;;;;-145.63;52.16;38826.72;5070823;28;20024;-64
2023/12/07 09:05:29;;;;;;;29.77;22.40;;;;;;;-145.63;52.92;38805.22;5082477;28;20028;-65
2023/12/07 09:07:56;;;;;;;29.08;23.50;;;;;;;-145.63;52.08;38805.22;5082082;28;20066;-65
2023/12/07 09:10:22;;;;;;;34.03;25.27;;;;;;;-145.63;52.71;38781.75;5082263;28;20032;-65
2023/12/07 09:12:48;;;;;;;34.95;25.98;;;;;;;-145.63;52.56;38824.78;5082484;28;20021;-65
2023/12/07 09:15:14;;;;;;;33.67;25.88;;;;;;;-145.63;52.41;38807.19;5071859;28;20078;-66
2023/12/07 09:17:41;;;;;;;35.67;25.67;;;;;;;-145.63;51.28;38838.47;5067241;28;20028;-64
2023/12/07 09:20:14;;;;;;;32.72;24.67;;;;;;;-145.63;51.84;38846.28;5081356;28;20028;-66
2023/12/07 09:22:42;;;;;;;35.38;25.92;;;;;;;-145.63;51.17;38850.19;5081023;28;20051;-65
2023/12/07 09:25:08;;;;;;;35.40;26.27;;;;;;;-145.63;51.87;38859.97;5067980;28;20216;-66
2023/12/07 09:27:37;;;;;;;38.10;27.92;;;;;;;-145.63;52.24;38805.22;5061850;28;20025;-66
2023/12/07 09:30:10;;;;;;;35.22;27.15;;;;;;;-145.63;52.49;38824.78;5072565;28;20032;-66
2023/12/07 09:32:40;;;;;;;34.03;27.10;;;;;;;-145.63;52.21;38844.34;5081945;28;20028;-65
2023/12/07 09:35:07;;;;;;;32.90;25.40;;;;;;;-145.63;51.85;38824.78;5073417;28;20039;-65
2023/12/07 09:37:36;;;;;;;34.53;25.27;;;;;;;-145.63;52.67;38840.44;5074253;28;20090;-63
2023/12/07 09:40:04;;;;;;;28.75;23.02;;;;;;;-145.63;51.62;38869.75;5078555;28;20024;-65
2023/12/07 09:42:31;;;;;;;31.52;22.33;;;;;;;-145.63;51.51;38815.00;5081767;28;20024;-64
2023/12/07 09:44:57;;;;;;;33.10;22.88;;;;;;;-145.63;51.15;38816.97;5074786;28;20013;-64
2023/12/07 09:47:23;;;;;;;29.25;20.58;;;;;;;-145.63;51.39;38840.44;5064528;28;20075;-66
2023/12/07 09:49:49;;;;;;;29.45;23.17;;;;;;;-145.63;52.33;38678.13;5081928;28;20024;-65
2023/12/07 09:52:16;;;;;;;28.23;21.83;;;;;;;-145.63;52.18;38852.16;5079877;28;20034;-69
2023/12/07 09:54:43;;;;;;;30.77;22.27;;;;;;;-145.63;51.25;38844.34;5082724;28;20032;-63
2023/12/07 09:57:09;;;;;;;30.50;22.02;;;;;;;-145.63;51.49;38820.88;5076604;28;20021;-65
2023/12/07 09:59:40;;;;;;;29.67;20.98;;;;;;;-145.63;51.90;38807.19;5069800;28;20032;-65
2023/12/07 10:02:07;;;;;;;;;;;;;;;-145.63;51.33;38824.78;5085919;28;20028;-64
2023/12/07 10:04:33;;;;;;;29.85;21.27;;;;;;;-145.63;52.19;38828.69;5065427;28;20333;-63
2023/12/07 10:06:58;;;;;;;29.33;22.08;;;;;;;-145.63;52.69;38820.88;5081071;28;20031;-65
2023/12/07 10:09:25;;;;;;;27.90;21.88;;;;;;;-145.63;52.91;38856.06;5084942;28;20024;-64
2023/12/07 10:12:03;;;;;;;29.35;21.10;;;;;;;-145.63;52.17;38856.06;5085311;28;20032;-64
2023/12/07 10:14:29;;;;;;;29.52;20.23;;;;;;;-145.63;52.09;38824.78;5081738;28;20119;-64
2023/12/07 10:16:56;;;;;;;29.63;21.70;;;;;;;-145.63;51.52;38844.34;5065329;28;20013;-64
2023/12/07 10:19:22;;;;;;;24.92;20.20;;;;;;;-145.63;51.82;38805.22;5083509;28;20020;-64
2023/12/07 10:21:51;;;;;;;27.85;21.35;;;;;;;-145.63;51.04;38832.59;5072578;28;20051;-64
2023/12/07 10:24:18;;;;;;;27.13;20.27;;;;;;;-145.63;51.47;38826.72;5074878;28;20128;-63
2023/12/07 10:26:45;;;;;;;24.88;19.90;;;;;;;-145.63;51.56;38828.69;5085082;28;20194;-64
2023/12/07 10:29:12;;;;;;;30.50;22.63;;;;;;;-145.63;51.58;38861.94;5084052;28;20579;-63
2023/12/07 10:31:38;;;;;;;26.85;20.08;;;;;;;-145.63;50.28;38867.81;5064900;28;20025;-64
2023/12/07 10:34:05;;;;;;;23.77;19.63;;;;;;;-145.63;50.07;38826.72;5097887;28;20392;-63
2023/12/07 10:36:32;;;;;;;24.52;18.60;;;;;;;-145.63;50.40;38848.25;5093147;28;20044;-64
2023/12/07 10:38:58;;;;;;;26.25;19.65;;;;;;;-145.63;50.32;38840.44;5077665;28;20025;-64
2023/12/07 10:41:25;;;;;;;25.15;19.55;;;;;;;-145.63;50.33;38820.88;5065803;28;20025;-63
2023/12/07 10:44:00;;;;;;;25.00;19.42;;;;;;;-145.63;49.68;38887.34;5084920;28;20024;-63
2023/12/07 10:46:27;;;;;;;22.38;16.95;;;;;;;-145.63;50.85;38822.81;5084604;28;20048;-65
2023/12/07 10:49:05;;;;;;;23.33;16.77;;;;;;;-145.63;50.01;38762.22;5074396;28;20052;-63
2023/12/07 10:51:56;;;;;;;22.65;16.13;;;;;;;-145.63;50.08;38828.69;5084501;28;20028;-63
2023/12/07 10:54:24;;;;;;;25.83;18.38;;;;;;;-145.63;51.39;38813.03;5084432;28;20331;-64
2023/12/07 10:56:50;;;;;;;24.13;18.90;;;;;;;-145.63;50.81;38852.16;5084631;28;20039;-64
2023/12/07 10:59:16;;;;;;;23.15;18.67;;;;;;;-145.63;50.00;38856.06;5082015;28;20096;-64